Time;durP1;ratioP1;P1;durP2;ratioP2;P2;SDS_P1;SDS_P2;PMS_P1;PMS_P2;Temp;Humidity;BMP_temperature;BMP_pressure;BME280_temperature;BME280_humidity;BME280_pressure;Samples;Min_cycle;Max_cycle;Signal;HPM_P1;HPM_P2
2021/05/08 03:02:07;;;;;;;7.20;6.60;;;6.30;99.90;;;;;;5549338;22;94081;-85
2021/05/08 03:04:33;;;;;;;6.63;6.22;;;;;;;;;;4896647;28;92043;-85
2021/05/08 03:07:03;;;;;;;10.18;9.63;;;6.40;99.90;;;;;;4888214;28;91869;-85
2021/05/08 03:09:30;;;;;;;8.10;7.18;;;6.50;99.90;;;;;;4888124;28;94173;-85
2021/05/08 03:11:56;;;;;;;7.40;6.82;;;6.60;99.90;;;;;;4892000;28;95847;-87
2021/05/08 03:14:22;;;;;;;7.88;7.47;;;6.60;99.90;;;;;;4899591;28;91949;-87
2021/05/08 03:16:48;;;;;;;9.25;8.77;;;6.60;99.90;;;;;;4905837;28;91813;-89
2021/05/08 03:19:14;;;;;;;14.77;14.18;;;;;;;;;;4906940;28;93246;-89
2021/05/08 03:21:39;;;;;;;17.67;16.75;;;6.70;99.90;;;;;;4903996;28;91935;-87
2021/05/08 03:24:13;;;;;;;14.20;13.55;;;6.70;99.90;;;;;;4907903;28;91807;-86
2021/05/08 03:26:39;;;;;;;18.27;17.48;;;6.70;99.90;;;;;;4907014;28;90703;-87
2021/05/08 03:29:06;;;;;;;15.18;14.57;;;6.80;99.90;;;;;;4906730;28;92271;-86
2021/05/08 03:31:32;;;;;;;9.27;8.77;;;;;;;;;;4906503;28;92475;-86
2021/05/08 03:33:58;;;;;;;11.00;10.45;;;;;;;;;;4907391;28;92885;-87
2021/05/08 03:36:25;;;;;;;11.57;10.93;;;7.00;99.90;;;;;;4906099;28;91993;-85
2021/05/08 03:38:50;;;;;;;14.73;13.07;;;6.90;99.90;;;;;;4905191;28;92211;-84
2021/05/08 03:41:16;;;;;;;15.75;15.05;;;6.90;99.90;;;;;;4903247;28;92083;-85
2021/05/08 03:43:42;;;;;;;13.30;12.52;;;6.90;99.90;;;;;;4903181;28;91892;-87
2021/05/08 03:46:08;;;;;;;11.45;10.65;;;6.90;99.90;;;;;;4900774;28;91834;-85
2021/05/08 03:48:33;;;;;;;16.20;15.40;;;6.80;99.90;;;;;;4905324;28;92368;-85
2021/05/08 03:51:00;;;;;;;13.23;12.63;;;6.80;99.90;;;;;;4894555;28;93408;-85
2021/05/08 03:53:26;;;;;;;12.38;11.77;;;6.70;99.90;;;;;;4887484;28;91854;-84
2021/05/08 03:55:53;;;;;;;12.80;12.20;;;6.70;99.90;;;;;;4891875;28;91639;-84
2021/05/08 03:58:22;;;;;;;15.50;14.80;;;6.70;99.90;;;;;;4906187;28;94357;-85
2021/05/08 04:00:48;;;;;;;19.80;18.80;;;6.70;99.90;;;;;;4907030;28;93475;-84
2021/05/08 04:03:14;;;;;;;16.23;15.52;;;6.70;99.90;;;;;;4885545;28;92141;-85
2021/05/08 04:05:40;;;;;;;16.92;16.33;;;6.70;99.90;;;;;;4887092;28;91626;-85
2021/05/08 04:08:05;;;;;;;18.48;17.77;;;6.80;99.90;;;;;;4901208;28;92395;-85
2021/05/08 04:10:31;;;;;;;15.75;15.13;;;6.80;99.90;;;;;;4885538;28;91939;-85
2021/05/08 04:12:57;;;;;;;9.65;9.05;;;6.90;99.90;;;;;;4885895;28;91854;-84
2021/05/08 04:15:23;;;;;;;8.98;8.57;;;7.00;99.90;;;;;;4891248;28;91339;-85
2021/05/08 04:17:48;;;;;;;10.98;10.48;;;7.10;99.90;;;;;;4880410;28;92691;-87
2021/05/08 04:20:14;;;;;;;9.57;9.18;;;7.10;99.90;;;;;;4872455;28;91860;-85
2021/05/08 04:22:40;;;;;;;9.52;9.13;;;7.10;99.90;;;;;;4881704;28;92350;-86
2021/05/08 04:25:06;;;;;;;7.63;7.15;;;7.00;99.90;;;;;;4882197;28;91411;-86
2021/05/08 04:27:32;;;;;;;10.23;9.68;;;;;;;;;;4878541;28;92044;-86
2021/05/08 04:29:58;;;;;;;10.63;10.20;;;7.00;99.90;;;;;;4867598;28;95443;-85
2021/05/08 04:32:24;;;;;;;6.85;6.43;;;6.90;99.90;;;;;;4884398;28;91915;-85
2021/05/08 04:34:50;;;;;;;8.50;7.90;;;6.90;99.90;;;;;;4885000;28;91930;-85
2021/05/08 04:37:16;;;;;;;10.27;9.73;;;6.90;99.90;;;;;;4884973;28;92328;-87
2021/05/08 04:39:41;;;;;;;11.02;10.52;;;6.90;99.90;;;;;;4878817;28;92111;-85
2021/05/08 04:42:07;;;;;;;8.40;7.82;;;6.90;99.90;;;;;;4881685;28;91896;-86
2021/05/08 04:44:33;;;;;;;7.13;6.78;;;6.90;99.90;;;;;;4885668;28;92007;-86
2021/05/08 04:46:59;;;;;;;7.30;6.85;;;6.90;99.90;;;;;;4868424;28;94029;-86
2021/05/08 04:49:25;;;;;;;7.65;7.25;;;7.00;99.90;;;;;;4883988;28;92743;-84
2021/05/08 04:51:54;;;;;;;6.40;6.00;;;7.00;99.90;;;;;;4863990;28;91900;-85
2021/05/08 04:54:20;;;;;;;6.90;6.40;;;;;;;;;;4885889;28;91915;-86
2021/05/08 04:56:57;;;;;;;8.18;7.68;;;7.10;99.90;;;;;;4866055;29;93254;-85
2021/05/08 04:59:23;;;;;;;6.55;6.15;;;7.10;99.90;;;;;;4883911;28;92486;-84
2021/05/08 05:01:48;;;;;;;6.85;6.47;;;7.10;99.90;;;;;;4884111;28;91306;-85
2021/05/08 05:04:15;;;;;;;6.68;6.28;;;7.10;99.90;;;;;;4883307;28;91304;-86
2021/05/08 05:06:41;;;;;;;6.93;6.60;;;7.20;99.90;;;;;;4887547;28;93640;-87
2021/05/08 05:09:07;;;;;;;6.53;6.13;;;;;;;;;;4878246;28;92228;-90
2021/05/08 05:11:33;;;;;;;6.45;5.95;;;;;;;;;;4885003;28;92983;-87
2021/05/08 05:13:59;;;;;;;7.72;7.30;;;;;;;;;;4884993;28;91908;-89
2021/05/08 05:16:26;;;;;;;9.20;8.60;;;;;;;;;;4890413;28;92067;-84
2021/05/08 05:19:04;;;;;;;9.63;9.00;;;7.50;99.90;;;;;;4873131;28;95966;-87
2021/05/08 05:21:29;;;;;;;7.85;7.43;;;7.70;99.90;;;;;;4892228;28;91997;-87
2021/05/08 05:23:55;;;;;;;7.43;7.03;;;7.80;99.90;;;;;;4876789;28;91415;-86
2021/05/08 05:26:21;;;;;;;6.63;6.07;;;7.90;99.90;;;;;;4893330;28;92732;-86
2021/05/08 05:28:47;;;;;;;6.07;5.68;;;;;;;;;;4885951;28;92448;-87
2021/05/08 05:31:14;;;;;;;9.23;8.73;;;7.90;99.90;;;;;;4879659;28;91916;-86
2021/05/08 05:33:40;;;;;;;11.98;11.25;;;7.90;99.90;;;;;;4874535;28;93070;-85
2021/05/08 05:36:09;;;;;;;12.40;11.80;;;7.90;99.90;;;;;;4893751;28;95324;-85
2021/05/08 05:38:35;;;;;;;9.25;8.75;;;7.90;99.90;;;;;;4886153;28;92435;-85
2021/05/08 05:41:00;;;;;;;7.75;7.25;;;7.90;99.90;;;;;;4893136;28;91463;-87
2021/05/08 05:43:26;;;;;;;5.75;5.45;;;7.90;99.90;;;;;;4897842;28;92230;-84
2021/05/08 05:45:52;;;;;;;4.82;4.53;;;7.90;99.90;;;;;;4891033;28;92837;-86
2021/05/08 05:48:18;;;;;;;6.22;5.93;;;8.00;99.90;;;;;;4891442;28;92019;-85
2021/05/08 05:50:44;;;;;;;6.38;5.97;;;8.00;99.90;;;;;;4899813;28;91897;-84
2021/05/08 05:54:19;;;;;;;7.68;7.30;;;8.10;99.90;;;;;;4920350;28;91004;-85
2021/05/08 05:57:05;;;;;;;8.15;7.75;;;8.10;99.90;;;;;;4884811;28;92050;-86
2021/05/08 05:59:31;;;;;;;6.50;6.10;;;8.20;99.90;;;;;;4892526;28;92067;-86
2021/05/08 06:02:11;;;;;;;5.40;5.10;;;8.30;99.90;;;;;;4894073;28;92995;-85
2021/05/08 06:04:37;;;;;;;6.85;6.45;;;;;;;;;;4870082;29;91956;-86
2021/05/08 06:07:07;;;;;;;8.07;7.47;;;8.50;99.90;;;;;;4866135;28;91969;-84
2021/05/08 06:12:09;;;;;;;10.25;9.75;;;8.70;98.50;;;;;;4997575;23;92923;-83
2021/05/08 06:14:36;;;;;;;7.22;6.85;;;8.80;97.70;;;;;;4928161;28;91855;-85
2021/05/08 06:17:02;;;;;;;5.72;5.53;;;;;;;;;;4927828;28;94303;-85
2021/05/08 06:19:28;;;;;;;6.15;5.78;;;8.90;96.50;;;;;;4924670;28;92893;-82
2021/05/08 06:21:53;;;;;;;7.45;7.07;;;8.90;96.80;;;;;;4926964;28;91947;-86
2021/05/08 06:24:20;;;;;;;6.25;5.85;;;;;;;;;;4927334;28;91828;-89
2021/05/08 06:26:45;;;;;;;5.57;5.30;;;9.00;96.40;;;;;;4926781;28;93786;-86
2021/05/08 06:29:11;;;;;;;7.35;6.93;;;9.10;97.50;;;;;;4914586;28;92390;-87
2021/05/08 06:31:38;;;;;;;5.82;5.53;;;;;;;;;;4931107;28;91904;-89
2021/05/08 06:34:03;;;;;;;7.72;7.22;;;9.30;98.10;;;;;;4921497;28;91965;-84
2021/05/08 06:36:29;;;;;;;7.88;7.35;;;9.50;99.90;;;;;;4920718;28;92662;-86
2021/05/08 06:38:56;;;;;;;6.60;6.20;;;9.60;99.90;;;;;;4931905;28;93885;-89
2021/05/08 06:41:23;;;;;;;6.88;6.28;;;9.70;98.30;;;;;;4926627;28;92133;-88
2021/05/08 06:43:48;;;;;;;5.55;5.32;;;9.80;95.40;;;;;;4926329;28;91428;-83
2021/05/08 06:46:14;;;;;;;6.88;6.30;;;9.80;93.90;;;;;;4931689;28;91527;-86
2021/05/08 06:48:40;;;;;;;6.18;5.78;;;9.90;94.30;;;;;;4932793;28;91997;-86
2021/05/08 06:51:07;;;;;;;5.45;5.07;;;9.90;94.00;;;;;;4935990;28;92480;-84
2021/05/08 06:53:34;;;;;;;6.10;5.80;;;10.00;94.20;;;;;;4927783;28;91861;-83
2021/05/08 06:56:00;;;;;;;6.18;5.78;;;10.10;94.50;;;;;;4924848;28;92370;-85
2021/05/08 06:58:26;;;;;;;5.32;5.13;;;10.20;94.00;;;;;;4931717;28;92878;-86
2021/05/08 07:00:52;;;;;;;6.05;5.75;;;10.20;93.70;;;;;;4932840;28;92042;-86
2021/05/08 07:03:17;;;;;;;8.60;8.10;;;10.30;94.10;;;;;;4939909;28;91755;-85
2021/05/08 07:05:43;;;;;;;7.60;7.10;;;10.40;92.50;;;;;;4932425;28;92000;-87
2021/05/08 07:08:10;;;;;;;11.77;11.27;;;10.50;92.50;;;;;;4925793;28;92315;-86
2021/05/08 07:10:44;;;;;;;14.23;13.55;;;10.60;91.80;;;;;;4920467;28;91842;-86
2021/05/08 07:13:10;;;;;;;8.38;7.88;;;10.60;91.70;;;;;;4929431;28;91994;-88
2021/05/08 07:15:36;;;;;;;9.00;8.60;;;;;;;;;;4926557;28;93035;-85
2021/05/08 07:18:04;;;;;;;9.07;8.68;;;10.70;90.50;;;;;;4925724;28;92251;-85
2021/05/08 07:20:30;;;;;;;7.97;7.53;;;10.80;90.50;;;;;;4927120;28;92046;-86
2021/05/08 07:22:56;;;;;;;6.75;6.45;;;10.90;90.90;;;;;;4927419;28;91887;-86
2021/05/08 07:25:22;;;;;;;5.78;5.38;;;11.00;90.40;;;;;;4922447;28;92281;-86
2021/05/08 07:27:48;;;;;;;7.97;6.60;;;;;;;;;;4920065;28;92017;-86
2021/05/08 07:30:16;;;;;;;8.75;8.18;;;11.10;89.90;;;;;;4924724;28;92080;-86
2021/05/08 07:32:42;;;;;;;8.93;8.52;;;11.20;84.90;;;;;;4916908;28;91203;-85
2021/05/08 07:35:08;;;;;;;5.90;5.60;;;11.30;84.30;;;;;;4918766;28;92744;-87
2021/05/08 07:37:34;;;;;;;7.80;7.40;;;11.30;86.20;;;;;;4924950;28;91988;-87
2021/05/08 07:40:01;;;;;;;13.07;12.45;;;11.60;86.60;;;;;;4929669;28;92881;-85
2021/05/08 07:42:26;;;;;;;13.10;12.60;;;11.50;84.70;;;;;;4926052;28;92339;-85
2021/05/08 07:44:52;;;;;;;11.32;10.73;;;11.70;82.80;;;;;;4926507;28;92063;-86
2021/05/08 07:47:19;;;;;;;11.40;10.90;;;11.80;83.10;;;;;;4922118;28;92244;-85
2021/05/08 07:49:45;;;;;;;10.82;10.15;;;11.90;81.70;;;;;;4936154;28;92041;-84
2021/05/08 07:52:12;;;;;;;11.40;10.80;;;12.00;84.30;;;;;;4926390;28;92042;-86
2021/05/08 07:54:38;;;;;;;12.63;12.07;;;12.20;81.10;;;;;;4924567;28;91928;-85
2021/05/08 07:57:11;;;;;;;12.52;11.88;;;12.30;82.60;;;;;;4923675;28;92101;-85
2021/05/08 07:59:37;;;;;;;8.80;8.40;;;12.60;81.40;;;;;;4924769;28;91876;-87
2021/05/08 08:02:02;;;;;;;10.23;9.82;;;12.80;77.50;;;;;;4925463;28;92028;-86
2021/05/08 08:04:33;;;;;;;8.30;7.93;;;13.00;78.40;;;;;;4924604;28;95788;-86
2021/05/08 08:06:59;;;;;;;8.35;7.95;;;13.50;75.60;;;;;;4923961;28;92792;-85
2021/05/08 08:09:24;;;;;;;14.10;13.40;;;14.00;81.70;;;;;;4929027;28;92066;-84
2021/05/08 08:11:50;;;;;;;17.80;16.90;;;14.50;73.50;;;;;;4923401;28;91676;-84
2021/05/08 08:14:16;;;;;;;17.15;16.25;;;15.00;85.00;;;;;;4924984;28;92362;-84
2021/05/08 08:16:43;;;;;;;9.90;9.40;;;17.50;82.80;;;;;;4923361;28;91854;-86
2021/05/08 08:19:08;;;;;;;10.27;9.77;;;17.60;82.70;;;;;;4925566;28;91978;-89
2021/05/08 08:21:34;;;;;;;11.13;10.63;;;19.90;78.10;;;;;;4930818;28;91161;-89
2021/05/08 08:24:00;;;;;;;9.10;8.60;;;21.70;71.40;;;;;;4937662;28;91880;-86
2021/05/08 08:26:26;;;;;;;11.07;10.48;;;23.30;63.30;;;;;;4917359;28;92003;-87
2021/05/08 08:28:51;;;;;;;21.23;20.13;;;24.70;57.70;;;;;;4923445;28;92852;-87
2021/05/08 08:31:17;;;;;;;57.50;54.88;;;25.90;52.80;;;;;;4924813;28;92062;-86
2021/05/08 08:33:43;;;;;;;22.48;21.45;;;26.60;48.30;;;;;;4917791;28;94508;-86
2021/05/08 08:36:08;;;;;;;19.40;18.40;;;26.70;47.50;;;;;;4924428;28;92082;-86
2021/05/08 08:38:34;;;;;;;51.35;49.22;;;27.30;45.20;;;;;;4923738;28;91931;-86
2021/05/08 08:41:00;;;;;;;65.38;62.65;;;28.40;43.80;;;;;;4933534;28;92146;-87
2021/05/08 08:43:26;;;;;;;47.53;45.55;;;30.00;43.00;;;;;;4920524;28;92191;-87
2021/05/08 08:45:52;;;;;;;38.63;36.97;;;31.50;40.50;;;;;;4922401;28;91553;-87
2021/05/08 08:48:19;;;;;;;32.97;31.58;;;32.50;38.40;;;;;;4922985;28;92081;-87
2021/05/08 08:50:48;;;;;;;33.75;32.33;;;33.70;37.30;;;;;;4919857;28;91890;-87
2021/05/08 08:53:15;;;;;;;34.65;33.22;;;34.80;34.50;;;;;;4922109;28;93001;-87
2021/05/08 08:55:53;;;;;;;52.63;50.45;;;35.70;34.00;;;;;;4903586;28;93819;-87
2021/05/08 08:58:25;;;;;;;39.25;37.65;;;36.00;32.00;;;;;;4917051;28;91712;-87
2021/05/08 09:00:51;;;;;;;79.95;76.82;;;36.60;32.00;;;;;;4928078;28;91964;-87
2021/05/08 09:03:18;;;;;;;59.47;57.08;;;37.20;31.70;;;;;;4919644;28;92772;-87
2021/05/08 09:05:44;;;;;;;54.03;51.70;;;37.80;30.60;;;;;;4922054;28;92278;-86
2021/05/08 09:08:12;;;;;;;32.83;31.42;;;38.10;30.00;;;;;;4922520;28;92006;-87
2021/05/08 09:10:37;;;;;;;54.47;52.28;;;38.40;29.40;;;;;;4922527;28;91322;-87
2021/05/08 09:13:05;;;;;;;49.60;47.50;;;38.40;29.50;;;;;;4921841;28;94153;-87
2021/05/08 09:15:38;;;;;;;78.95;75.80;;;38.50;28.70;;;;;;4905886;28;91988;-87
2021/05/08 09:18:05;;;;;;;62.70;60.05;;;38.80;28.90;;;;;;4923044;28;92841;-85
2021/05/08 09:20:41;;;;;;;82.30;79.00;;;39.30;28.50;;;;;;4921941;28;92092;-87
2021/05/08 09:23:17;;;;;;;49.50;47.42;;;39.70;27.80;;;;;;4913900;28;95443;-87
2021/05/08 09:26:05;;;;;;;41.53;39.72;;;39.90;27.80;;;;;;4918430;28;92020;-85
2021/05/08 09:28:39;;;;;;;58.55;55.97;;;40.30;27.90;;;;;;4922287;28;91898;-85
2021/05/08 09:31:13;;;;;;;22.98;21.73;;;40.50;27.80;;;;;;4915177;28;91906;-86
2021/05/08 09:33:39;;;;;;;25.40;24.20;;;41.00;27.40;;;;;;4922355;28;91882;-85
2021/05/08 09:36:07;;;;;;;30.48;29.05;;;41.20;27.80;;;;;;4921958;28;94704;-88
2021/05/08 09:38:44;;;;;;;63.30;60.77;;;41.60;27.30;;;;;;4921012;28;92076;-85
2021/05/08 09:41:13;;;;;;;47.53;45.58;;;42.00;26.80;;;;;;4884553;28;91939;-85
2021/05/08 09:43:39;;;;;;;81.93;78.65;;;42.20;26.80;;;;;;4915176;28;94107;-86
2021/05/08 09:46:06;;;;;;;91.53;87.57;;;42.30;26.30;;;;;;4920874;28;92191;-85
2021/05/08 09:48:37;;;;;;;69.40;66.57;;;42.40;26.30;;;;;;4921805;28;92043;-85
2021/05/08 09:51:22;;;;;;;113.07;108.70;;;42.90;25.80;;;;;;4916593;28;91653;-86
2021/05/08 09:53:49;;;;;;;93.75;89.97;;;42.90;25.20;;;;;;4923352;28;93225;-86
2021/05/08 09:56:34;;;;;;;86.45;83.07;;;43.00;26.00;;;;;;4923388;28;92044;-86
2021/05/08 09:59:38;;;;;;;81.05;77.90;;;43.20;25.40;;;;;;4903425;28;91918;-86
2021/05/08 10:02:04;;;;;;;104.25;99.93;;;43.50;24.80;;;;;;4925091;28;91361;-85
2021/05/08 10:04:34;;;;;;;104.18;99.97;;;43.40;25.40;;;;;;4941212;28;93602;-86
2021/05/08 10:07:06;;;;;;;;;;;43.50;24.90;;;;;;4929695;28;93443;-86
2021/05/08 10:09:34;;;;;;;167.63;161.05;;;43.60;24.90;;;;;;4918631;28;92106;-87
2021/05/08 10:12:05;;;;;;;207.32;199.23;;;43.70;25.60;;;;;;4901571;28;92153;-89
2021/05/08 10:14:33;;;;;;;191.05;183.32;;;43.90;25.40;;;;;;4921579;28;92020;-86
2021/05/08 10:16:59;;;;;;;227.20;218.38;;;44.00;25.30;;;;;;4922276;28;92466;-86
2021/05/08 10:19:30;;;;;;;159.15;152.63;;;44.50;25.60;;;;;;4923602;28;91856;-86
2021/05/08 10:22:02;;;;;;;113.75;109.07;;;44.20;24.70;;;;;;4920998;28;92113;-86
2021/05/08 10:24:28;;;;;;;91.43;87.70;;;44.20;24.80;;;;;;4922271;28;92235;-86
2021/05/08 10:26:59;;;;;;;64.18;61.63;;;44.40;25.10;;;;;;4922943;28;92417;-86
2021/05/08 10:29:31;;;;;;;47.55;45.53;;;43.90;25.20;;;;;;4923006;28;92088;-86
2021/05/08 10:32:01;;;;;;;59.25;56.88;;;43.90;25.10;;;;;;4924013;28;91633;-86
2021/05/08 10:34:39;;;;;;;48.45;46.45;;;43.60;24.30;;;;;;4923133;28;94301;-86
2021/05/08 10:37:06;;;;;;;62.03;59.45;;;43.70;25.00;;;;;;4922099;28;92821;-87
2021/05/08 10:39:49;;;;;;;54.45;52.20;;;44.10;24.70;;;;;;4924091;28;92093;-86
2021/05/08 10:42:49;;;;;;;70.63;67.60;;;44.20;24.10;;;;;;4910618;28;91979;-88
2021/05/08 10:45:20;;;;;;;100.07;95.93;;;44.40;23.80;;;;;;4923169;28;92835;-88
2021/05/08 10:47:55;;;;;;;81.82;78.57;;;44.10;23.60;;;;;;4922175;28;91877;-86
2021/05/08 10:50:21;;;;;;;115.55;110.38;;;44.50;24.00;;;;;;4918134;28;91908;-86
2021/05/08 10:53:07;;;;;;;198.52;190.10;;;44.70;24.50;;;;;;4923069;28;91323;-88
2021/05/08 10:55:49;;;;;;;199.50;191.50;;;44.30;23.50;;;;;;4904202;28;92512;-87
2021/05/08 10:58:20;;;;;;;169.45;161.35;;;44.10;23.60;;;;;;4921373;28;92465;-89
2021/05/08 11:00:56;;;;;;;184.45;177.07;;;44.00;23.60;;;;;;4915640;28;92893;-86
2021/05/08 11:03:30;;;;;;;107.88;103.55;;;44.30;23.50;;;;;;4914385;28;91930;-86
2021/05/08 11:06:13;;;;;;;49.95;47.92;;;44.70;23.00;;;;;;4926784;28;92575;-86
2021/05/08 11:08:49;;;;;;;98.88;95.00;;;44.30;22.60;;;;;;4927916;28;93354;-86
2021/05/08 11:11:16;;;;;;;107.65;103.53;;;44.00;22.90;;;;;;4927980;28;92006;-86
2021/05/08 11:13:42;;;;;;;92.57;88.95;;;44.10;22.90;;;;;;4921894;28;92275;-86
2021/05/08 11:16:18;;;;;;;87.68;84.28;;;43.80;23.20;;;;;;4917188;28;92385;-86
2021/05/08 11:18:45;;;;;;;87.13;83.78;;;44.00;22.90;;;;;;4923799;28;93716;-86
2021/05/08 11:21:10;;;;;;;117.55;113.05;;;44.00;23.30;;;;;;4931473;28;91751;-87
2021/05/08 11:23:58;;;;;;;92.72;89.03;;;43.50;23.10;;;;;;4920588;28;91700;-86
2021/05/08 11:26:25;;;;;;;135.80;130.50;;;43.90;22.80;;;;;;4921404;28;93015;-86
2021/05/08 11:28:54;;;;;;;197.65;190.18;;;44.10;22.50;;;;;;4920993;28;92436;-86
2021/05/08 11:31:39;;;;;;;116.20;111.70;;;44.50;22.70;;;;;;4921908;28;91886;-86
2021/05/08 11:34:19;;;;;;;112.78;108.20;;;44.70;22.60;;;;;;4918604;28;91884;-86
2021/05/08 11:36:45;;;;;;;124.25;119.35;;;44.30;22.70;;;;;;4921359;28;92755;-86
2021/05/08 11:39:12;;;;;;;177.55;170.65;;;44.50;22.60;;;;;;4921432;28;92070;-86
2021/05/08 11:41:39;;;;;;;108.78;104.43;;;44.70;22.60;;;;;;4921162;28;91863;-86
2021/05/08 11:44:05;;;;;;;104.00;100.00;;;44.40;22.60;;;;;;4921393;28;91466;-88
2021/05/08 11:46:32;;;;;;;154.52;148.43;;;44.30;22.60;;;;;;4919159;28;92785;-86
2021/05/08 11:48:59;;;;;;;117.03;112.55;;;44.30;22.70;;;;;;4920798;28;91927;-87
2021/05/08 11:51:25;;;;;;;103.63;99.53;;;43.50;22.50;;;;;;4922424;28;92930;-85
2021/05/08 11:54:10;;;;;;;108.10;103.97;;;43.20;22.40;;;;;;4923869;28;92098;-86
2021/05/08 11:57:14;;;;;;;103.15;99.03;;;43.10;22.50;;;;;;4926393;28;93426;-84
2021/05/08 11:59:40;;;;;;;128.32;123.28;;;43.40;22.10;;;;;;4931051;28;92037;-86
2021/05/08 12:02:31;;;;;;;102.55;98.53;;;43.00;23.00;;;;;;4924812;28;91909;-87
2021/05/08 12:04:57;;;;;;;89.95;86.40;;;43.10;22.40;;;;;;4920277;28;92106;-85
2021/05/08 12:07:29;;;;;;;103.13;99.13;;;43.10;22.70;;;;;;4924341;28;92507;-84
2021/05/08 12:10:14;;;;;;;97.35;93.45;;;43.40;22.70;;;;;;4924913;28;93209;-87
2021/05/08 12:12:50;;;;;;;102.20;98.20;;;43.80;21.90;;;;;;4919191;28;91922;-86
2021/05/08 12:15:21;;;;;;;74.45;71.55;;;43.60;21.90;;;;;;4905521;28;91917;-91
2021/05/08 12:17:48;;;;;;;87.80;84.43;;;43.40;22.40;;;;;;4887672;28;94780;-84
2021/05/08 12:20:18;;;;;;;83.18;79.97;;;43.10;22.20;;;;;;4905780;28;92939;-87
2021/05/08 12:22:45;;;;;;;101.50;97.63;;;42.30;22.10;;;;;;4880697;28;92144;-85
2021/05/08 12:25:18;;;;;;;84.97;81.68;;;41.90;22.60;;;;;;4909606;28;92205;-86
2021/05/08 12:27:44;;;;;;;97.82;93.93;;;42.10;23.40;;;;;;4906370;28;92623;-86
2021/05/08 12:30:11;;;;;;;113.68;109.20;;;42.30;22.70;;;;;;4898120;28;91937;-86
2021/05/08 12:32:53;;;;;;;100.07;96.15;;;41.50;23.10;;;;;;4907095;28;91953;-87
2021/05/08 12:35:20;;;;;;;111.38;107.00;;;42.00;22.70;;;;;;4909077;28;91297;-86
2021/05/08 12:37:47;;;;;;;107.65;103.35;;;42.00;22.90;;;;;;4898430;28;91880;-86
2021/05/08 12:40:14;;;;;;;118.50;113.90;;;42.10;22.90;;;;;;4906513;28;92831;-85
2021/05/08 12:42:47;;;;;;;101.97;98.03;;;42.20;23.00;;;;;;4911145;28;92865;-85
2021/05/08 12:45:14;;;;;;;107.80;103.65;;;41.80;23.30;;;;;;4906809;28;91851;-85
2021/05/08 12:47:45;;;;;;;116.25;111.70;;;42.00;23.20;;;;;;4905624;28;92454;-85
2021/05/08 12:50:12;;;;;;;111.57;107.28;;;42.00;23.20;;;;;;4892976;28;92120;-87
2021/05/08 12:53:01;;;;;;;105.38;101.18;;;42.00;23.30;;;;;;4920732;28;91828;-86
2021/05/08 12:55:34;;;;;;;101.55;97.65;;;42.00;23.00;;;;;;4918574;28;92002;-85
2021/05/08 12:58:13;;;;;;;103.05;99.00;;;41.60;23.30;;;;;;4916411;28;92858;-84
2021/05/08 13:00:39;;;;;;;107.90;103.80;;;41.50;23.20;;;;;;4914257;28;92121;-84
2021/05/08 13:03:39;;;;;;;129.98;124.97;;;41.20;23.50;;;;;;4910931;28;91231;-84
2021/05/08 13:06:21;;;;;;;138.63;133.30;;;40.90;23.20;;;;;;4909797;28;91931;-86
2021/05/08 13:08:52;;;;;;;109.90;105.70;;;40.60;23.70;;;;;;4900743;28;93706;-84
2021/05/08 13:11:42;;;;;;;134.20;129.05;;;40.30;24.00;;;;;;4903729;28;92226;-85
2021/05/08 13:14:24;;;;;;;127.18;122.07;;;39.90;23.60;;;;;;4890588;28;91736;-86
2021/05/08 13:16:55;;;;;;;147.32;141.60;;;39.60;24.10;;;;;;4905989;28;91803;-85
2021/05/08 13:19:22;;;;;;;186.98;179.63;;;39.30;24.10;;;;;;4905821;28;92002;-86
2021/05/08 13:21:49;;;;;;;148.32;142.35;;;39.00;24.60;;;;;;4907862;28;92811;-85
2021/05/08 13:24:25;;;;;;;183.50;176.30;;;38.70;24.10;;;;;;4908841;28;91905;-84
2021/05/08 13:26:51;;;;;;;180.70;173.60;;;38.30;24.00;;;;;;4904899;28;91036;-87
2021/05/08 13:29:17;;;;;;;198.48;190.57;;;38.10;23.90;;;;;;4900836;28;92677;-84
2021/05/08 13:31:42;;;;;;;189.15;181.75;;;38.10;24.30;;;;;;4907394;28;93543;-85
2021/05/08 13:34:08;;;;;;;212.93;204.75;;;38.20;24.20;;;;;;4906270;28;92862;-84
2021/05/08 13:36:34;;;;;;;222.93;214.25;;;37.90;24.60;;;;;;4907713;28;91789;-85
2021/05/08 13:39:00;;;;;;;213.00;204.75;;;37.40;24.50;;;;;;4908311;28;92364;-86
2021/05/08 13:41:26;;;;;;;170.02;163.32;;;37.20;24.50;;;;;;4908351;28;92105;-87
2021/05/08 13:43:51;;;;;;;173.85;167.00;;;37.00;24.60;;;;;;4907441;28;92007;-85
2021/05/08 13:46:17;;;;;;;233.65;224.52;;;36.60;24.90;;;;;;4907868;28;92203;-87
2021/05/08 13:48:43;;;;;;;283.10;271.60;;;36.30;25.50;;;;;;4901219;28;92671;-86
2021/05/08 13:51:09;;;;;;;293.77;281.92;;;;;;;;;;4894688;28;91494;-86
2021/05/08 13:53:34;;;;;;;284.48;273.23;;;34.80;25.30;;;;;;4908019;28;92014;-86
2021/05/08 13:56:00;;;;;;;176.77;169.68;;;34.00;26.10;;;;;;4905761;28;92234;-85
2021/05/08 13:58:26;;;;;;;213.45;205.25;;;33.10;26.60;;;;;;4906453;28;94425;-85
2021/05/08 14:00:52;;;;;;;153.18;147.10;;;32.30;27.10;;;;;;4901934;28;93098;-84
2021/05/08 14:03:17;;;;;;;161.50;155.18;;;31.80;27.40;;;;;;4906194;28;91845;-88
2021/05/08 14:05:43;;;;;;;97.05;93.28;;;31.20;27.80;;;;;;4903407;28;92071;-85
2021/05/08 14:08:09;;;;;;;73.60;70.80;;;31.00;28.60;;;;;;4890705;28;93166;-85
2021/05/08 14:10:35;;;;;;;59.88;57.55;;;31.00;28.40;;;;;;4905750;28;92331;-89
2021/05/08 14:13:00;;;;;;;36.63;35.08;;;31.10;28.20;;;;;;4923784;28;92014;-85
2021/05/08 14:15:26;;;;;;;66.20;63.65;;;31.10;28.60;;;;;;4919819;28;91316;-84
2021/05/08 14:17:52;;;;;;;50.97;48.88;;;30.90;28.00;;;;;;4911832;28;94503;-87
2021/05/08 14:20:18;;;;;;;40.10;38.58;;;30.60;28.00;;;;;;4928651;28;91974;-87
2021/05/08 14:22:44;;;;;;;43.53;41.83;;;30.20;28.50;;;;;;4934766;28;92910;-85
2021/05/08 14:25:11;;;;;;;76.53;73.63;;;30.00;28.70;;;;;;4927283;28;92078;-85
2021/05/08 14:27:37;;;;;;;90.72;87.18;;;30.30;29.50;;;;;;4915414;28;92659;-86
2021/05/08 14:30:11;;;;;;;44.15;42.35;;;30.30;29.60;;;;;;4920353;28;91764;-88
2021/05/08 14:32:44;;;;;;;38.63;37.13;;;30.40;28.50;;;;;;4924002;28;92308;-87
2021/05/08 14:35:12;;;;;;;39.45;37.95;;;30.30;29.10;;;;;;4916098;28;92071;-86
2021/05/08 14:37:39;;;;;;;42.20;40.50;;;30.20;28.50;;;;;;4927906;28;92356;-87
2021/05/08 14:40:07;;;;;;;30.50;29.25;;;30.30;28.00;;;;;;4922306;28;92879;-87
2021/05/08 14:42:37;;;;;;;26.65;25.55;;;30.30;28.30;;;;;;4927776;28;92085;-88
2021/05/08 14:45:04;;;;;;;35.28;33.88;;;30.40;28.40;;;;;;4922495;28;91902;-88
2021/05/08 14:47:30;;;;;;;30.10;28.85;;;30.40;28.30;;;;;;4912640;28;93251;-86
2021/05/08 14:49:56;;;;;;;30.40;29.20;;;30.50;28.20;;;;;;4917311;28;93388;-87
2021/05/08 14:52:28;;;;;;;32.13;30.92;;;30.50;28.00;;;;;;4922263;28;91958;-87
2021/05/08 14:54:54;;;;;;;69.40;66.70;;;30.30;28.30;;;;;;4926395;28;92062;-87
2021/05/08 14:57:22;;;;;;;44.55;42.85;;;29.90;27.50;;;;;;4928700;28;92226;-88
2021/05/08 14:59:48;;;;;;;50.30;48.30;;;29.40;28.50;;;;;;4935158;28;91560;-83
2021/05/08 15:02:14;;;;;;;40.55;38.95;;;29.00;28.50;;;;;;4928166;28;92201;-83
2021/05/08 15:04:39;;;;;;;58.78;56.50;;;28.80;28.80;;;;;;4927297;28;91283;-86
2021/05/08 15:07:05;;;;;;;43.58;41.85;;;28.50;28.60;;;;;;4921572;28;92485;-84
2021/05/08 15:09:31;;;;;;;81.38;78.28;;;28.00;28.80;;;;;;4927827;28;92466;-86
2021/05/08 15:11:57;;;;;;;75.18;72.15;;;27.70;29.80;;;;;;4929879;28;92965;-85
2021/05/08 15:14:22;;;;;;;120.35;115.82;;;27.40;28.50;;;;;;4928788;28;91984;-86
2021/05/08 15:16:48;;;;;;;120.35;115.70;;;27.40;29.00;;;;;;4924376;28;92079;-87
2021/05/08 15:19:15;;;;;;;105.15;101.10;;;27.40;29.60;;;;;;4927706;28;91948;-86
2021/05/08 15:21:42;;;;;;;153.07;147.30;;;27.30;28.90;;;;;;4923390;28;91824;-86
2021/05/08 15:24:08;;;;;;;140.95;135.63;;;27.10;29.20;;;;;;4929239;28;91981;-86
2021/05/08 15:26:34;;;;;;;121.65;117.07;;;26.80;29.50;;;;;;4911073;28;93680;-86
2021/05/08 15:28:59;;;;;;;114.68;110.28;;;26.60;29.50;;;;;;4920525;28;93203;-87
2021/05/08 15:31:25;;;;;;;137.98;132.90;;;26.40;29.60;;;;;;4902264;28;92058;-87
2021/05/08 15:33:51;;;;;;;173.32;167.00;;;26.40;29.60;;;;;;4925434;28;92099;-87
2021/05/08 15:36:16;;;;;;;205.45;198.07;;;26.20;29.70;;;;;;4926569;28;94305;-87
2021/05/08 15:38:42;;;;;;;201.23;194.07;;;26.10;29.90;;;;;;4925709;28;92963;-86
2021/05/08 15:41:08;;;;;;;197.40;190.35;;;25.90;29.70;;;;;;4924478;28;91769;-86
2021/05/08 15:43:33;;;;;;;160.90;154.82;;;25.60;29.70;;;;;;4925699;28;92221;-88
2021/05/08 15:45:59;;;;;;;223.80;215.40;;;25.40;30.40;;;;;;4916826;28;92213;-84
2021/05/08 15:48:25;;;;;;;303.02;291.55;;;25.30;31.40;;;;;;4924558;28;92614;-86